Time;durP1;ratioP1;P1;durP2;ratioP2;P2;SDS_P1;SDS_P2;PMS_P1;PMS_P2;Temp;Humidity;BMP_temperature;BMP_pressure;BME280_temperature;BME280_humidity;BME280_pressure;Samples;Min_cycle;Max_cycle;Signal;HPM_P1;HPM_P2
2022/01/17 00:01:40;;;;;;;52.15;5.50;;;7.20;99.90;;;;;;5055110;28;20024;-75
2022/01/17 00:04:06;;;;;;;43.25;5.38;;;7.20;99.90;;;;;;5036969;28;20032;-74
2022/01/17 00:06:32;;;;;;;46.25;4.78;;;7.20;99.90;;;;;;5054509;28;20048;-74
2022/01/17 00:08:57;;;;;;;51.42;5.40;;;7.30;99.90;;;;;;5054726;28;20075;-74
2022/01/17 00:11:23;;;;;;;42.88;5.35;;;7.20;99.90;;;;;;5053891;28;20036;-74
2022/01/17 00:13:49;;;;;;;53.10;5.53;;;7.20;99.90;;;;;;5055237;28;20032;-74
2022/01/17 00:16:20;;;;;;;41.35;4.35;;;7.20;99.90;;;;;;5054661;28;20025;-74
2022/01/17 00:21:15;;;;;;;50.30;5.95;;;7.30;99.90;;;;;;5054799;28;20029;-75
2022/01/17 00:23:41;;;;;;;49.80;5.88;;;7.30;99.90;;;;;;5054768;28;20033;-74
2022/01/17 00:26:07;;;;;;;45.83;4.75;;;7.20;99.90;;;;;;5054324;28;20087;-75
2022/01/17 00:28:34;;;;;;;50.95;4.85;;;7.20;99.90;;;;;;5054863;28;20029;-75
2022/01/17 00:31:01;;;;;;;40.00;5.40;;;7.30;99.90;;;;;;5054594;28;20062;-74
2022/01/17 00:33:28;;;;;;;42.67;5.30;;;7.20;99.90;;;;;;5054763;28;20048;-74
2022/01/17 00:35:54;;;;;;;44.22;5.07;;;7.20;99.90;;;;;;5053787;28;20363;-75
2022/01/17 00:38:19;;;;;;;49.08;4.40;;;7.20;99.90;;;;;;5054529;28;20032;-74
2022/01/17 00:40:45;;;;;;;51.33;6.25;;;7.20;99.90;;;;;;5054941;28;20024;-76
2022/01/17 00:43:11;;;;;;;53.53;4.78;;;7.30;99.90;;;;;;5054738;28;20033;-74
2022/01/17 00:45:39;;;;;;;47.13;4.82;;;7.20;99.90;;;;;;5054344;28;20110;-74
2022/01/17 00:48:05;;;;;;;40.83;4.65;;;7.20;99.90;;;;;;5054538;28;20025;-74
2022/01/17 00:50:32;;;;;;;33.80;4.43;;;7.20;99.90;;;;;;5054480;28;20107;-74
2022/01/17 00:53:03;;;;;;;51.22;4.82;;;7.20;99.90;;;;;;5054534;28;20052;-74
2022/01/17 00:55:29;;;;;;;49.85;6.65;;;7.20;99.90;;;;;;5053992;28;20100;-76
2022/01/17 00:57:55;;;;;;;39.15;5.20;;;7.30;99.90;;;;;;5054181;28;20025;-74
2022/01/17 01:00:21;;;;;;;46.67;5.13;;;7.40;99.90;;;;;;5056845;28;20029;-76
2022/01/17 01:02:47;;;;;;;45.63;5.32;;;7.40;99.90;;;;;;5058383;28;20025;-76
2022/01/17 01:05:12;;;;;;;38.83;4.07;;;7.40;99.90;;;;;;5077295;28;20047;-77
2022/01/17 01:07:38;;;;;;;51.22;5.00;;;7.40;99.90;;;;;;5067448;28;20032;-75
2022/01/17 01:10:10;;;;;;;46.70;5.30;;;7.40;99.90;;;;;;5060545;28;20017;-74
2022/01/17 01:12:36;;;;;;;47.15;5.03;;;7.40;99.90;;;;;;5068134;28;20035;-76
2022/01/17 01:15:06;;;;;;;52.28;5.63;;;7.40;99.90;;;;;;5064039;28;20021;-74
2022/01/17 01:17:49;;;;;;;44.88;4.97;;;7.40;99.90;;;;;;5053858;28;20021;-75
2022/01/17 01:28:30;;;;;;;33.40;4.28;;;7.50;99.90;;;;;;5061136;28;20043;-74
2022/01/17 01:30:58;;;;;;;39.22;4.95;;;7.50;99.90;;;;;;5058336;28;20490;-75
2022/01/17 01:33:28;;;;;;;46.72;6.18;;;7.50;99.90;;;;;;5054869;28;20047;-75
2022/01/17 01:36:05;;;;;;;38.88;5.45;;;7.50;99.90;;;;;;5061902;28;20037;-77
2022/01/17 01:38:31;;;;;;;47.03;5.00;;;7.50;99.90;;;;;;5075806;28;20043;-74
2022/01/17 01:40:57;;;;;;;42.92;5.78;;;7.50;99.90;;;;;;5070047;28;20275;-75
2022/01/17 01:43:23;;;;;;;45.47;4.97;;;7.50;99.90;;;;;;5074092;28;20041;-76
2022/01/17 01:45:50;;;;;;;40.15;4.63;;;7.60;99.90;;;;;;5074239;28;20088;-74
2022/01/17 01:48:19;;;;;;;51.00;5.63;;;7.60;99.90;;;;;;5053128;28;20048;-76
2022/01/17 01:50:46;;;;;;;44.03;6.03;;;7.60;99.90;;;;;;5054433;28;20489;-80
2022/01/17 01:53:12;;;;;;;51.17;4.82;;;7.60;99.90;;;;;;5064639;28;20025;-78
2022/01/17 01:55:38;;;;;;;47.97;5.30;;;7.60;99.90;;;;;;5054412;28;20036;-80
2022/01/17 01:58:03;;;;;;;39.70;5.55;;;7.60;99.90;;;;;;5055673;28;20532;-78
2022/01/17 02:00:29;;;;;;;55.75;5.38;;;7.60;99.90;;;;;;5055547;28;20055;-80
2022/01/17 02:02:55;;;;;;;53.15;6.43;;;7.60;99.90;;;;;;5057347;28;20070;-78
2022/01/17 02:05:20;;;;;;;44.25;5.10;;;7.70;99.90;;;;;;5060952;28;20025;-79
2022/01/17 02:07:46;;;;;;;47.92;5.50;;;7.60;99.90;;;;;;5056583;28;20025;-81
2022/01/17 02:10:12;;;;;;;39.70;4.35;;;7.60;99.90;;;;;;5061604;28;20104;-79
2022/01/17 02:12:38;;;;;;;55.47;6.35;;;7.60;99.90;;;;;;5054355;28;20052;-79
2022/01/17 02:15:05;;;;;;;50.53;6.35;;;7.60;99.90;;;;;;5055766;28;20382;-78
2022/01/17 02:17:34;;;;;;;47.22;5.53;;;7.70;99.90;;;;;;5055289;28;20028;-79
2022/01/17 02:20:09;;;;;;;40.65;5.05;;;7.70;99.90;;;;;;5057037;28;20017;-80
2022/01/17 02:22:39;;;;;;;36.00;5.28;;;7.70;99.90;;;;;;5057726;28;20028;-81
2022/01/17 02:25:05;;;;;;;50.17;6.40;;;7.70;99.90;;;;;;5057096;28;20107;-78
2022/01/17 02:27:31;;;;;;;51.00;5.68;;;7.70;99.90;;;;;;5056892;28;20029;-79
2022/01/17 02:29:56;;;;;;;49.88;5.80;;;7.70;99.90;;;;;;5060469;28;20057;-80
2022/01/17 02:32:22;;;;;;;43.55;4.55;;;7.70;99.90;;;;;;5061186;28;20547;-77
2022/01/17 02:34:47;;;;;;;47.13;5.57;;;7.70;99.90;;;;;;5066035;28;20029;-79
2022/01/17 02:37:13;;;;;;;41.50;4.25;;;7.70;99.90;;;;;;5057143;28;20087;-80
2022/01/17 02:39:39;;;;;;;49.45;5.03;;;7.70;99.90;;;;;;5061910;28;20013;-80
2022/01/17 02:42:05;;;;;;;60.42;6.03;;;7.70;99.90;;;;;;5055484;28;20501;-79
2022/01/17 02:44:31;;;;;;;36.20;4.65;;;7.70;99.90;;;;;;5055016;28;20033;-79
2022/01/17 02:46:58;;;;;;;60.28;5.45;;;7.70;99.90;;;;;;5056571;28;20020;-81
2022/01/17 02:49:24;;;;;;;45.45;5.07;;;7.70;99.90;;;;;;5057306;28;20104;-78
2022/01/17 02:51:54;;;;;;;43.28;5.60;;;7.70;99.90;;;;;;5056509;28;20106;-80
2022/01/17 02:54:19;;;;;;;38.40;4.70;;;7.70;99.90;;;;;;5054513;28;20376;-79
2022/01/17 02:56:45;;;;;;;44.25;5.43;;;7.70;99.90;;;;;;5054158;28;20064;-80
2022/01/17 02:59:11;;;;;;;52.30;5.38;;;7.70;99.90;;;;;;5054293;28;20059;-80
2022/01/17 03:01:36;;;;;;;42.63;5.22;;;7.70;99.90;;;;;;5054159;28;20021;-79
2022/01/17 03:04:04;;;;;;;39.15;5.05;;;7.80;99.90;;;;;;5061225;28;20056;-79
2022/01/17 03:06:30;;;;;;;42.88;4.70;;;7.80;99.90;;;;;;5052986;28;20021;-78
2022/01/17 03:08:56;;;;;;;45.63;5.47;;;7.80;99.90;;;;;;5054678;28;20079;-77
2022/01/17 03:11:26;;;;;;;45.67;5.50;;;7.80;99.90;;;;;;5054814;28;20024;-80
2022/01/17 03:13:52;;;;;;;39.47;4.80;;;7.90;99.90;;;;;;5058924;28;20029;-81
2022/01/17 03:16:28;;;;;;;38.88;4.60;;;7.90;99.90;;;;;;5055131;28;20032;-84
2022/01/17 03:18:53;;;;;;;54.00;5.60;;;7.90;99.90;;;;;;5055624;28;20032;-81
2022/01/17 03:21:20;;;;;;;53.10;6.00;;;7.90;99.90;;;;;;5055356;28;20025;-82
2022/01/17 03:23:48;;;;;;;47.67;5.32;;;7.90;99.90;;;;;;5057232;28;20032;-79
2022/01/17 03:26:13;;;;;;;40.78;5.50;;;7.90;99.90;;;;;;5051393;28;20028;-77
2022/01/17 03:28:39;;;;;;;47.55;4.72;;;7.90;99.90;;;;;;5052720;28;20029;-77
2022/01/17 03:31:07;;;;;;;47.53;5.65;;;7.90;99.90;;;;;;5053063;28;20056;-75
2022/01/17 03:33:32;;;;;;;44.50;5.18;;;7.90;99.90;;;;;;5053637;28;20024;-76
2022/01/17 03:35:59;;;;;;;39.40;4.80;;;7.80;99.90;;;;;;5074511;28;20037;-76
2022/01/17 03:38:28;;;;;;;52.17;5.65;;;7.90;99.90;;;;;;5052197;28;20068;-75
2022/01/17 03:40:55;;;;;;;42.05;5.10;;;7.80;99.90;;;;;;5052395;28;20033;-76
2022/01/17 03:43:24;;;;;;;36.20;4.78;;;7.80;99.90;;;;;;5050933;28;20401;-75
2022/01/17 03:45:50;;;;;;;49.58;6.05;;;7.90;99.90;;;;;;5051743;28;20465;-75
2022/01/17 03:48:17;;;;;;;40.35;5.47;;;7.80;99.90;;;;;;5055416;28;20033;-76
2022/01/17 03:50:43;;;;;;;58.78;7.70;;;7.80;99.90;;;;;;5055443;28;20044;-75
2022/01/17 03:53:09;;;;;;;40.95;6.10;;;7.80;99.90;;;;;;5055894;28;20029;-75
2022/01/17 03:55:35;;;;;;;56.90;6.80;;;7.80;99.90;;;;;;5055260;28;20029;-77
2022/01/17 03:58:02;;;;;;;47.95;5.10;;;7.80;99.90;;;;;;5054227;28;20024;-77
2022/01/17 04:00:33;;;;;;;53.70;6.15;;;7.80;99.90;;;;;;5054187;28;20474;-76
2022/01/17 04:02:59;;;;;;;50.50;5.65;;;7.80;99.90;;;;;;5058533;28;20029;-75
2022/01/17 04:05:26;;;;;;;38.03;4.82;;;7.90;99.90;;;;;;5066229;28;20025;-77
2022/01/17 04:07:52;;;;;;;56.10;6.03;;;7.80;99.90;;;;;;5074003;28;20032;-77
2022/01/17 04:10:18;;;;;;;50.58;5.57;;;7.80;99.90;;;;;;5075237;28;20382;-75
2022/01/17 04:12:44;;;;;;;53.30;6.47;;;7.80;99.90;;;;;;5074983;28;20032;-75
2022/01/17 04:15:11;;;;;;;47.58;5.68;;;7.70;99.90;;;;;;5088041;28;20050;-76
2022/01/17 04:17:39;;;;;;;44.75;5.45;;;7.80;99.90;;;;;;5084062;28;20028;-78
2022/01/17 04:20:09;;;;;;;43.50;5.13;;;7.80;99.90;;;;;;5075799;28;20042;-78
2022/01/17 04:22:40;;;;;;;48.63;5.05;;;7.80;99.90;;;;;;5074993;28;20534;-77
2022/01/17 04:25:07;;;;;;;58.72;5.88;;;7.80;99.90;;;;;;5087555;28;20024;-76
2022/01/17 04:27:33;;;;;;;55.47;5.70;;;7.90;99.90;;;;;;5089022;28;20080;-76
2022/01/17 04:30:00;;;;;;;53.45;5.72;;;7.90;99.90;;;;;;5079201;28;20024;-78
2022/01/17 04:32:25;;;;;;;52.63;6.05;;;7.90;99.90;;;;;;5074762;28;20028;-76
2022/01/17 04:34:51;;;;;;;48.97;6.40;;;7.90;99.90;;;;;;5073589;28;20039;-77
2022/01/17 04:37:17;;;;;;;46.67;5.07;;;7.90;99.90;;;;;;5074877;28;20542;-76
2022/01/17 04:39:42;;;;;;;59.67;5.63;;;7.90;99.90;;;;;;5074684;28;20043;-76
2022/01/17 04:42:12;;;;;;;53.28;6.03;;;7.90;99.90;;;;;;5077106;28;20103;-77
2022/01/17 04:47:29;;;;;;;52.05;6.60;;;7.90;99.90;;;;;;5074327;28;20107;-76
2022/01/17 04:49:54;;;;;;;62.20;7.03;;;7.90;99.90;;;;;;5074338;28;20473;-76
2022/01/17 04:52:20;;;;;;;40.42;6.10;;;7.90;99.90;;;;;;5074483;28;20041;-76
2022/01/17 04:54:52;;;;;;;49.72;6.45;;;8.00;99.90;;;;;;5074213;28;20021;-77
2022/01/17 04:57:18;;;;;;;67.00;7.18;;;8.00;99.90;;;;;;5075697;28;20028;-76
2022/01/17 04:59:43;;;;;;;60.47;6.38;;;8.00;99.90;;;;;;5086143;28;20042;-76
2022/01/17 05:02:10;;;;;;;52.97;6.32;;;8.00;99.90;;;;;;5085034;28;20029;-75
2022/01/17 05:04:35;;;;;;;58.60;7.18;;;8.00;99.90;;;;;;5086470;28;20045;-75
2022/01/17 05:07:02;;;;;;;71.78;6.40;;;8.00;99.90;;;;;;5088568;28;20032;-77
2022/01/17 05:09:27;;;;;;;43.80;5.60;;;8.10;99.90;;;;;;5090288;28;20021;-74
2022/01/17 05:11:53;;;;;;;63.47;6.70;;;8.10;99.90;;;;;;5086643;28;20083;-75
2022/01/17 05:14:19;;;;;;;51.63;5.97;;;8.10;99.90;;;;;;5083249;28;20044;-76
2022/01/17 05:16:50;;;;;;;70.05;7.00;;;8.10;99.90;;;;;;5074482;28;20020;-76
2022/01/17 05:19:49;;;;;;;63.20;6.53;;;8.10;99.90;;;;;;5075132;28;20033;-76
2022/01/17 05:22:07;;;;;;;56.13;7.75;;;8.10;99.90;;;;;;5072313;28;20044;-77
2022/01/17 05:24:33;;;;;;;53.90;6.70;;;8.10;99.90;;;;;;5075475;28;20017;-77
2022/01/17 05:26:58;;;;;;;57.83;6.35;;;8.20;99.90;;;;;;5076329;28;20079;-77
2022/01/17 05:29:24;;;;;;;60.67;7.43;;;8.20;99.90;;;;;;5073066;28;20025;-76
2022/01/17 05:31:49;;;;;;;57.58;6.45;;;8.20;99.90;;;;;;5074281;28;20027;-76
2022/01/17 05:34:15;;;;;;;64.45;8.40;;;8.20;99.90;;;;;;5074394;28;20025;-76
2022/01/17 05:36:40;;;;;;;70.30;7.78;;;8.20;99.90;;;;;;5074577;28;20027;-76
2022/01/17 05:39:06;;;;;;;43.78;6.45;;;8.20;99.90;;;;;;5073062;28;20024;-76
2022/01/17 05:41:32;;;;;;;61.50;6.65;;;8.20;99.90;;;;;;5072946;28;20056;-77
2022/01/17 05:43:58;;;;;;;75.75;8.50;;;8.20;99.90;;;;;;5073376;28;20036;-76
2022/01/17 05:46:23;;;;;;;59.55;6.78;;;8.20;99.90;;;;;;5073016;28;20439;-77
2022/01/17 05:48:49;;;;;;;68.10;7.38;;;8.20;99.90;;;;;;5073475;28;20024;-76
2022/01/17 05:51:15;;;;;;;70.90;7.75;;;8.20;99.90;;;;;;5074521;28;20052;-77
2022/01/17 05:53:40;;;;;;;63.63;8.07;;;8.20;99.90;;;;;;5074385;28;20036;-77
2022/01/17 05:56:06;;;;;;;74.03;7.00;;;8.20;99.90;;;;;;5082019;28;20029;-77
2022/01/17 05:58:31;;;;;;;68.85;7.60;;;8.20;99.90;;;;;;5117177;22;20719;-73
2022/01/17 06:00:57;;;;;;;70.82;7.30;;;8.20;99.90;;;;;;5055691;28;20420;-75
2022/01/17 06:03:23;;;;;;;53.78;6.45;;;8.20;99.90;;;;;;5056555;28;20028;-73
2022/01/17 06:05:48;;;;;;;63.22;7.53;;;8.20;99.90;;;;;;5056260;28;20021;-74
2022/01/17 06:08:14;;;;;;;71.93;8.30;;;8.30;99.90;;;;;;5056561;28;20025;-74
2022/01/17 06:10:39;;;;;;;61.03;7.60;;;8.30;99.90;;;;;;5055539;28;20032;-74
2022/01/17 06:13:05;;;;;;;53.63;6.45;;;8.30;99.90;;;;;;5057458;28;20162;-74
2022/01/17 06:15:31;;;;;;;62.10;7.22;;;8.30;99.90;;;;;;5055787;28;20070;-73
2022/01/17 06:17:56;;;;;;;58.35;7.25;;;8.30;99.90;;;;;;5056057;28;20033;-76
2022/01/17 06:20:22;;;;;;;57.42;7.38;;;8.40;99.90;;;;;;5057273;28;20021;-75
2022/01/17 06:22:47;;;;;;;57.47;6.93;;;8.40;99.90;;;;;;5057452;28;20021;-76
2022/01/17 06:25:13;;;;;;;55.95;7.95;;;8.50;99.90;;;;;;5058685;28;20410;-76
2022/01/17 06:27:39;;;;;;;48.83;6.15;;;8.50;99.90;;;;;;5056799;28;20053;-75
2022/01/17 06:30:05;;;;;;;71.70;7.55;;;8.60;99.90;;;;;;5057755;28;20025;-75
2022/01/17 06:32:31;;;;;;;59.78;6.72;;;8.60;99.90;;;;;;5054835;28;20029;-76
2022/01/17 06:34:57;;;;;;;74.45;7.38;;;8.60;99.90;;;;;;5054457;28;20032;-75
2022/01/17 06:37:24;;;;;;;64.40;6.32;;;8.60;99.90;;;;;;5054508;28;20029;-75
2022/01/17 06:39:51;;;;;;;67.43;8.35;;;8.50;99.90;;;;;;5057266;28;20021;-75
2022/01/17 06:42:16;;;;;;;67.65;7.82;;;8.50;99.90;;;;;;5056806;28;20023;-75
2022/01/17 06:44:42;;;;;;;65.55;7.05;;;8.40;99.90;;;;;;5054528;28;20108;-74
2022/01/17 06:47:07;;;;;;;81.18;9.00;;;8.40;99.90;;;;;;5053785;28;20486;-72
2022/01/17 06:49:33;;;;;;;75.53;7.22;;;8.40;99.90;;;;;;5052315;28;20060;-76
2022/01/17 06:51:59;;;;;;;66.38;8.20;;;8.40;99.90;;;;;;5051631;28;20022;-74
2022/01/17 06:54:24;;;;;;;72.90;8.30;;;8.40;99.90;;;;;;5056323;28;20470;-73
2022/01/17 06:56:50;;;;;;;76.13;8.45;;;8.40;99.90;;;;;;5052104;28;20025;-74
2022/01/17 06:59:15;;;;;;;58.97;8.40;;;8.40;99.90;;;;;;5055127;28;20052;-74
2022/01/17 07:01:42;;;;;;;68.78;7.68;;;8.40;99.90;;;;;;5053419;28;20032;-74
2022/01/17 07:04:09;;;;;;;77.05;7.60;;;8.40;99.90;;;;;;5051113;28;20440;-75
2022/01/17 07:06:37;;;;;;;60.10;7.70;;;8.40;99.90;;;;;;5050906;28;20088;-74
2022/01/17 07:09:05;;;;;;;63.22;8.43;;;8.50;99.90;;;;;;5052699;28;20021;-74
2022/01/17 07:11:33;;;;;;;73.60;8.82;;;8.50;99.90;;;;;;5052989;28;20093;-74
2022/01/17 07:13:59;;;;;;;69.75;7.90;;;8.50;99.90;;;;;;5053164;28;20394;-75
2022/01/17 07:16:25;;;;;;;76.03;8.25;;;8.50;99.90;;;;;;5055418;28;20024;-76
2022/01/17 07:18:50;;;;;;;83.90;8.73;;;8.40;99.90;;;;;;5063812;28;20021;-77
2022/01/17 07:21:16;;;;;;;63.03;8.75;;;8.40;99.90;;;;;;5055409;28;20025;-75
2022/01/17 07:23:41;;;;;;;71.60;8.10;;;8.50;99.90;;;;;;5057961;28;20029;-74
2022/01/17 07:26:07;;;;;;;78.03;9.27;;;8.50;99.90;;;;;;5056598;28;20025;-74
2022/01/17 07:28:32;;;;;;;76.65;8.40;;;8.50;99.90;;;;;;5058962;28;20482;-74
2022/01/17 07:30:58;;;;;;;80.70;8.90;;;8.50;99.90;;;;;;5058174;28;20089;-74
2022/01/17 07:33:26;;;;;;;74.40;9.10;;;8.50;99.90;;;;;;5057383;28;20094;-74
2022/01/17 07:35:51;;;;;;;69.40;8.45;;;8.50;99.90;;;;;;5056330;28;20044;-73
2022/01/17 07:38:17;;;;;;;80.40;9.38;;;8.50;99.90;;;;;;5058525;28;20052;-75
2022/01/17 07:40:43;;;;;;;72.70;8.30;;;8.50;99.90;;;;;;5057558;28;20045;-74
2022/01/17 07:43:12;;;;;;;71.72;8.93;;;8.50;99.90;;;;;;5058640;28;20462;-75
2022/01/17 07:45:46;;;;;;;68.07;9.07;;;8.60;99.90;;;;;;5056690;28;20104;-74
2022/01/17 07:48:43;;;;;;;80.43;8.57;;;8.50;99.90;;;;;;5058872;28;20025;-74
2022/01/17 07:50:57;;;;;;;75.22;8.15;;;8.50;99.90;;;;;;5057365;28;20616;-75
2022/01/17 07:53:23;;;;;;;71.85;8.30;;;8.50;99.90;;;;;;5060741;28;20035;-75
2022/01/17 07:55:48;;;;;;;66.45;7.82;;;8.50;99.90;;;;;;5060856;28;20428;-74
2022/01/17 07:58:14;;;;;;;66.15;8.35;;;8.50;99.90;;;;;;5063426;28;20028;-74
2022/01/17 08:00:39;;;;;;;85.40;9.25;;;8.60;99.90;;;;;;5063531;28;20469;-75
2022/01/17 08:03:06;;;;;;;73.70;8.68;;;8.50;99.90;;;;;;5069878;28;20033;-75
2022/01/17 08:05:33;;;;;;;73.95;8.32;;;8.50;99.90;;;;;;5067564;28;20063;-74
2022/01/17 08:07:59;;;;;;;69.25;8.50;;;8.40;99.90;;;;;;5057125;28;20392;-74
2022/01/17 08:10:25;;;;;;;67.85;8.70;;;8.50;99.90;;;;;;5054331;28;20021;-74
2022/01/17 08:12:51;;;;;;;64.13;8.13;;;8.40;99.90;;;;;;5055836;28;20453;-74
2022/01/17 08:15:17;;;;;;;67.90;9.27;;;8.40;99.90;;;;;;5060204;28;20020;-75
2022/01/17 08:17:47;;;;;;;67.88;7.78;;;8.40;99.90;;;;;;5059927;28;20432;-75
2022/01/17 08:20:15;;;;;;;79.50;8.27;;;8.40;99.90;;;;;;5059192;28;20555;-75
2022/01/17 08:22:43;;;;;;;82.13;9.48;;;8.40;99.90;;;;;;5058176;28;20450;-73
2022/01/17 08:25:09;;;;;;;81.78;8.48;;;8.40;99.90;;;;;;5063373;28;20415;-74
2022/01/17 08:27:35;;;;;;;87.85;10.63;;;8.40;99.90;;;;;;5063487;28;20041;-75
2022/01/17 08:30:01;;;;;;;86.18;9.88;;;8.40;99.90;;;;;;5062709;28;20528;-78
2022/01/17 08:32:29;;;;;;;79.85;9.32;;;8.50;99.90;;;;;;5057428;28;20025;-77
2022/01/17 08:34:56;;;;;;;77.63;10.10;;;8.50;99.90;;;;;;5053403;28;20025;-75
2022/01/17 08:37:21;;;;;;;77.07;9.70;;;8.50;99.90;;;;;;5053992;28;20470;-75
2022/01/17 08:39:47;;;;;;;94.70;10.18;;;8.50;99.90;;;;;;5054477;28;20100;-75
2022/01/17 08:42:12;;;;;;;71.15;8.80;;;8.60;99.90;;;;;;5054100;28;20385;-74
2022/01/17 08:44:39;;;;;;;75.05;9.05;;;8.60;99.90;;;;;;5054653;28;20444;-74
2022/01/17 08:47:05;;;;;;;64.47;8.20;;;8.60;99.90;;;;;;5053990;28;20018;-74
2022/01/17 08:49:31;;;;;;;72.75;9.02;;;8.60;99.90;;;;;;5053975;28;20067;-73
2022/01/17 08:51:56;;;;;;;61.08;8.35;;;8.70;99.90;;;;;;5058512;28;20032;-73
2022/01/17 08:54:22;;;;;;;64.68;7.30;;;8.70;99.90;;;;;;5056557;28;20033;-74
2022/01/17 08:56:48;;;;;;;67.97;8.18;;;8.80;99.90;;;;;;5054242;28;20037;-76
2022/01/17 08:59:13;;;;;;;58.22;7.78;;;8.80;99.90;;;;;;5053000;28;20028;-75
2022/01/17 09:01:39;;;;;;;69.10;7.43;;;8.80;99.90;;;;;;5055039;28;20025;-74
2022/01/17 09:04:05;;;;;;;59.10;8.93;;;8.80;99.90;;;;;;5056204;28;20021;-75
2022/01/17 09:06:30;;;;;;;66.20;9.30;;;8.80;99.90;;;;;;5057385;28;20490;-73
2022/01/17 09:08:56;;;;;;;66.45;8.63;;;8.80;99.90;;;;;;5057417;28;20040;-74
2022/01/17 09:11:22;;;;;;;58.90;8.07;;;9.00;99.90;;;;;;5054403;28;20029;-73
2022/01/17 09:13:48;;;;;;;68.22;9.02;;;9.10;99.90;;;;;;5053743;28;20024;-73
2022/01/17 09:16:14;;;;;;;64.65;9.00;;;9.10;99.90;;;;;;5053665;28;20036;-73
2022/01/17 09:18:39;;;;;;;82.93;10.60;;;9.10;99.90;;;;;;5056918;28;20389;-74
2022/01/17 09:21:05;;;;;;;69.63;8.55;;;9.10;99.90;;;;;;5058851;28;20039;-73
2022/01/17 09:23:31;;;;;;;55.70;7.65;;;9.00;99.90;;;;;;5058573;28;20040;-73
2022/01/17 09:25:57;;;;;;;56.10;8.18;;;9.00;99.90;;;;;;5053475;28;20032;-73
2022/01/17 09:28:23;;;;;;;63.28;7.93;;;9.10;99.90;;;;;;5053080;28;20078;-75
2022/01/17 09:30:50;;;;;;;62.17;8.43;;;9.10;99.90;;;;;;5052891;28;20032;-74
2022/01/17 09:33:16;;;;;;;185.40;74.38;;;9.00;99.90;;;;;;5053515;28;20057;-75
2022/01/17 09:35:41;;;;;;;57.65;7.50;;;9.00;99.90;;;;;;5052655;28;20028;-74
2022/01/17 09:38:07;;;;;;;59.65;10.25;;;9.00;99.90;;;;;;5052621;28;20478;-75
2022/01/17 09:40:33;;;;;;;54.33;7.05;;;9.00;99.90;;;;;;5052837;28;20025;-74
2022/01/17 09:43:02;;;;;;;43.65;5.78;;;9.00;99.90;;;;;;5052664;28;20053;-74
2022/01/17 09:45:28;;;;;;;36.15;4.78;;;9.00;99.90;;;;;;5052494;28;20032;-74
2022/01/17 09:47:54;;;;;;;33.08;4.32;;;9.00;99.90;;;;;;5053679;28;20060;-74
2022/01/17 09:50:45;;;;;;;31.17;4.63;;;9.00;99.90;;;;;;5064398;28;20388;-74
2022/01/17 09:53:17;;;;;;;35.38;6.20;;;8.90;99.90;;;;;;5055676;28;20071;-76
2022/01/17 09:55:43;;;;;;;28.08;4.25;;;8.90;99.90;;;;;;5053517;28;20025;-75
2022/01/17 09:58:10;;;;;;;26.55;3.65;;;8.90;99.90;;;;;;5052910;28;20036;-75
2022/01/17 10:00:38;;;;;;;28.33;4.88;;;8.90;99.90;;;;;;5052966;28;20075;-74
2022/01/17 10:03:10;;;;;;;31.17;3.80;;;8.90;99.90;;;;;;5052504;28;20022;-74
2022/01/17 10:05:38;;;;;;;35.80;4.20;;;8.90;99.90;;;;;;5059472;28;20025;-74
2022/01/17 10:08:08;;;;;;;27.60;3.55;;;8.90;99.90;;;;;;5052625;28;20083;-74
2022/01/17 10:10:43;;;;;;;28.42;3.67;;;9.10;99.90;;;;;;5051377;28;20021;-74
2022/01/17 10:13:23;;;;;;;21.23;3.85;;;9.10;99.90;;;;;;5052329;28;20021;-74
2022/01/17 10:16:00;;;;;;;26.63;3.97;;;9.20;99.90;;;;;;5052723;28;20036;-75
2022/01/17 10:18:30;;;;;;;21.25;3.30;;;9.30;99.90;;;;;;5054008;28;20104;-75
2022/01/17 10:21:05;;;;;;;40.13;4.35;;;9.40;99.90;;;;;;5054300;28;20021;-74
2022/01/17 10:23:46;;;;;;;31.25;5.43;;;9.40;99.90;;;;;;5056571;28;20081;-75
2022/01/17 10:27:24;;;;;;;29.23;4.22;;;9.40;99.90;;;;;;5055400;28;20528;-75
2022/01/17 10:35:15;;;;;;;28.08;4.95;;;9.40;99.90;;;;;;5054873;28;20032;-75
2022/01/17 10:37:55;;;;;;;32.83;4.65;;;;;;;;;;5052546;28;20120;-74
2022/01/17 10:40:21;;;;;;;37.58;4.75;;;9.20;99.90;;;;;;5054091;28;20048;-75
2022/01/17 10:42:48;;;;;;;34.65;5.05;;;9.10;99.90;;;;;;5054552;28;20032;-74
2022/01/17 10:45:24;;;;;;;39.17;5.85;;;9.10;99.90;;;;;;5053260;28;20104;-75
2022/01/17 10:47:54;;;;;;;33.08;4.68;;;9.00;99.90;;;;;;5052970;28;20076;-72
2022/01/17 10:50:25;;;;;;;31.63;4.53;;;8.90;99.90;;;;;;5052312;28;20021;-73
2022/01/17 10:52:54;;;;;;;43.97;5.38;;;8.90;99.90;;;;;;5052347;28;20071;-74
2022/01/17 10:55:31;;;;;;;27.63;3.95;;;8.90;99.90;;;;;;5053580;28;20033;-77
2022/01/17 10:58:01;;;;;;;41.22;5.05;;;8.90;99.90;;;;;;5055511;28;20082;-74
2022/01/17 11:00:29;;;;;;;34.63;4.55;;;9.00;99.90;;;;;;5057491;28;20108;-76
2022/01/17 11:03:01;;;;;;;23.83;3.95;;;8.90;99.90;;;;;;5057114;28;20037;-75
2022/01/17 11:05:28;;;;;;;22.77;3.70;;;8.80;99.90;;;;;;5057354;28;20021;-74
2022/01/17 11:07:56;;;;;;;29.38;4.40;;;8.60;99.90;;;;;;5058121;28;20083;-75
2022/01/17 11:10:36;;;;;;;25.58;4.72;;;;;;;;;;5058460;28;20035;-74
2022/01/17 11:13:06;;;;;;;25.70;3.90;;;8.50;99.90;;;;;;5057365;28;20082;-75
2022/01/17 11:15:34;;;;;;;32.28;4.40;;;8.30;99.90;;;;;;5057732;28;20528;-75
2022/01/17 11:18:07;;;;;;;31.25;4.30;;;8.20;99.90;;;;;;5057562;28;20024;-74
2022/01/17 11:20:34;;;;;;;27.07;4.10;;;8.20;99.90;;;;;;5057610;28;20028;-74
2022/01/17 11:23:01;;;;;;;25.58;3.50;;;8.10;99.90;;;;;;5057636;28;20450;-75
2022/01/17 11:25:32;;;;;;;19.05;3.28;;;8.00;99.90;;;;;;5057150;28;20044;-75
2022/01/17 11:27:59;;;;;;;30.15;4.13;;;8.00;99.90;;;;;;5056582;28;20024;-74
2022/01/17 11:30:26;;;;;;;29.85;4.20;;;8.10;99.90;;;;;;5056695;28;20060;-76
2022/01/17 11:32:54;;;;;;;31.92;4.60;;;8.20;99.90;;;;;;5056924;28;20493;-74
2022/01/17 11:35:20;;;;;;;36.67;5.28;;;8.30;99.90;;;;;;5055897;28;20573;-76
2022/01/17 11:37:51;;;;;;;37.03;5.57;;;8.40;99.90;;;;;;5055460;28;20027;-73
2022/01/17 11:40:22;;;;;;;39.25;6.93;;;8.40;99.90;;;;;;5056432;28;20056;-74
2022/01/17 11:42:52;;;;;;;40.78;6.55;;;8.40;99.90;;;;;;5058228;28;20033;-74
2022/01/17 11:45:23;;;;;;;42.83;5.30;;;8.40;99.90;;;;;;5059015;28;20131;-75
2022/01/17 11:47:56;;;;;;;38.80;5.35;;;8.40;99.90;;;;;;5061339;28;20070;-75
2022/01/17 11:50:28;;;;;;;42.70;6.20;;;8.50;99.90;;;;;;5062681;28;20021;-75
2022/01/17 11:53:13;;;;;;;45.92;5.80;;;8.50;99.90;;;;;;5063957;28;20021;-75
2022/01/17 11:55:42;;;;;;;58.33;6.57;;;8.60;99.90;;;;;;5053586;28;20559;-75
2022/01/17 11:58:27;;;;;;;41.50;6.25;;;8.60;99.90;;;;;;5064135;28;20051;-75
2022/01/17 12:00:59;;;;;;;44.58;5.85;;;8.60;99.90;;;;;;5064276;28;20033;-76
2022/01/17 12:03:51;;;;;;;54.90;7.70;;;8.60;99.90;;;;;;5060221;28;20088;-77
2022/01/17 12:06:27;;;;;;;45.53;6.18;;;8.60;99.90;;;;;;5058844;28;20036;-75
2022/01/17 12:09:26;;;;;;;63.35;6.97;;;8.60;99.90;;;;;;5060478;28;20025;-76
2022/01/17 12:12:04;;;;;;;49.33;6.65;;;8.70;99.90;;;;;;5024673;28;20041;-77
2022/01/17 12:14:35;;;;;;;61.15;7.43;;;8.80;99.90;;;;;;5059726;28;20032;-75
2022/01/17 12:17:19;;;;;;;61.80;7.82;;;8.90;99.90;;;;;;5057999;28;20060;-77
2022/01/17 12:20:03;;;;;;;55.67;7.00;;;9.00;99.90;;;;;;5059800;28;20124;-75
2022/01/17 12:22:32;;;;;;;54.20;7.97;;;9.20;99.90;;;;;;5060389;28;20442;-75
2022/01/17 12:25:00;;;;;;;52.95;7.90;;;9.30;99.90;;;;;;5070833;28;20394;-77
2022/01/17 12:27:28;;;;;;;65.60;8.43;;;9.30;99.90;;;;;;5062453;28;20031;-77
2022/01/17 12:29:56;;;;;;;46.08;6.55;;;9.30;99.90;;;;;;5062589;28;20021;-76
2022/01/17 12:32:25;;;;;;;55.95;7.55;;;9.20;99.90;;;;;;5056936;28;20060;-75
2022/01/17 12:34:53;;;;;;;67.10;7.80;;;9.10;99.90;;;;;;5055799;28;20773;-76
2022/01/17 12:37:46;;;;;;;60.38;8.77;;;9.30;99.90;;;;;;5056591;28;20033;-76
2022/01/17 12:40:25;;;;;;;68.25;8.50;;;9.60;99.90;;;;;;5055566;28;20497;-76
2022/01/17 12:43:06;;;;;;;59.63;7.05;;;9.60;99.90;;;;;;5055561;28;20493;-75
2022/01/17 12:45:34;;;;;;;71.55;8.13;;;9.50;99.90;;;;;;5059195;28;20017;-75
2022/01/17 12:48:04;;;;;;;52.55;8.68;;;9.50;99.90;;;;;;5056392;28;20494;-77
2022/01/17 12:50:32;;;;;;;56.00;7.97;;;9.50;99.90;;;;;;5056886;28;20056;-74
2022/01/17 12:52:59;;;;;;;59.97;8.75;;;9.30;99.90;;;;;;5059191;28;20021;-78
2022/01/17 12:55:32;;;;;;;67.32;9.05;;;9.10;99.90;;;;;;5058707;28;20485;-77
2022/01/17 12:57:57;;;;;;;71.03;8.73;;;8.90;99.90;;;;;;5057733;28;20020;-77
2022/01/17 13:00:26;;;;;;;63.17;9.52;;;8.70;99.90;;;;;;5064375;28;20037;-75
2022/01/17 13:02:54;;;;;;;75.45;9.48;;;8.60;99.90;;;;;;5060061;28;20056;-76
2022/01/17 13:05:23;;;;;;;49.67;6.72;;;8.50;99.90;;;;;;5062007;28;20094;-76
2022/01/17 13:07:48;;;;;;;63.50;7.22;;;8.50;99.90;;;;;;5063912;28;20029;-76
2022/01/17 13:10:14;;;;;;;57.53;7.75;;;8.40;99.90;;;;;;5067162;28;20025;-74
2022/01/17 13:12:42;;;;;;;56.28;8.27;;;8.40;99.90;;;;;;5070279;28;20061;-76